Time;durP1;ratioP1;P1;durP2;ratioP2;P2;SDS_P1;SDS_P2;PMS_P1;PMS_P2;Temp;Humidity;BMP_temperature;BMP_pressure;BME280_temperature;BME280_humidity;BME280_pressure;Samples;Min_cycle;Max_cycle;Signal;HPM_P1;HPM_P2
2023/11/01 00:01:48;;;;;;;4.47;1.08;;;10.80;73.00;;;;;;5032643;28;20032;-71
2023/11/01 00:04:14;;;;;;;4.28;1.13;;;10.70;73.50;;;;;;5032851;28;20036;-72
2023/11/01 00:06:39;;;;;;;7.38;1.13;;;10.70;73.90;;;;;;5032794;28;20038;-72
2023/11/01 00:09:05;;;;;;;6.72;1.20;;;10.60;73.90;;;;;;5032774;28;20021;-71
2023/11/01 00:11:31;;;;;;;7.22;1.35;;;10.60;74.20;;;;;;5032529;28;20049;-70
2023/11/01 00:13:56;;;;;;;5.47;1.23;;;10.50;74.30;;;;;;5032480;28;20024;-71
2023/11/01 00:16:22;;;;;;;4.00;1.00;;;10.50;74.60;;;;;;5032738;28;20087;-70
2023/11/01 00:18:47;;;;;;;5.80;1.10;;;10.40;74.30;;;;;;5032481;28;20494;-71
2023/11/01 00:21:13;;;;;;;3.40;0.98;;;10.40;74.30;;;;;;5032599;28;20052;-72
2023/11/01 00:23:38;;;;;;;2.72;0.95;;;10.40;75.00;;;;;;5032896;28;20470;-72
2023/11/01 00:26:06;;;;;;;5.90;1.17;;;10.40;73.70;;;;;;5032558;28;20049;-70
2023/11/01 00:28:32;;;;;;;6.03;1.13;;;10.40;74.10;;;;;;5031394;28;20604;-72
2023/11/01 00:30:58;;;;;;;5.70;1.10;;;10.40;74.00;;;;;;5032461;28;20108;-71
2023/11/01 00:33:23;;;;;;;5.10;0.73;;;10.40;73.40;;;;;;5032628;28;20477;-70
2023/11/01 00:35:49;;;;;;;7.47;1.05;;;10.40;73.50;;;;;;5032492;28;20025;-70
2023/11/01 00:38:20;;;;;;;3.70;1.10;;;10.40;73.50;;;;;;5032562;28;20033;-70
2023/11/01 00:40:45;;;;;;;2.88;1.02;;;10.40;73.20;;;;;;5032431;28;20478;-70
2023/11/01 00:43:11;;;;;;;6.82;0.77;;;10.40;73.40;;;;;;5032756;28;20041;-70
2023/11/01 00:45:36;;;;;;;8.68;1.27;;;10.40;73.30;;;;;;5036169;28;20026;-70
2023/11/01 00:48:02;;;;;;;8.90;1.10;;;10.40;73.10;;;;;;5035935;28;20435;-70
2023/11/01 00:50:28;;;;;;;6.32;0.73;;;10.40;73.00;;;;;;5035998;28;20029;-70
2023/11/01 00:52:53;;;;;;;6.43;0.88;;;10.50;72.50;;;;;;5036059;28;20552;-70
2023/11/01 00:55:19;;;;;;;7.90;0.85;;;10.50;72.30;;;;;;5035823;28;20053;-70
2023/11/01 00:57:46;;;;;;;3.17;0.68;;;10.50;72.50;;;;;;5036090;28;20100;-70
2023/11/01 01:00:12;;;;;;;3.60;0.85;;;10.50;72.20;;;;;;5035904;28;20017;-70
2023/11/01 01:02:38;;;;;;;6.97;1.00;;;10.50;72.10;;;;;;5035856;28;20029;-69
2023/11/01 01:05:03;;;;;;;2.97;0.73;;;10.50;72.00;;;;;;5034549;28;20052;-70
2023/11/01 01:07:29;;;;;;;7.15;0.80;;;10.50;71.90;;;;;;5035767;28;20021;-70
2023/11/01 01:09:56;;;;;;;3.33;0.88;;;10.50;71.70;;;;;;5035805;28;20030;-74
2023/11/01 01:12:22;;;;;;;7.25;0.93;;;10.60;71.40;;;;;;5034255;28;20448;-70
2023/11/01 01:14:47;;;;;;;7.97;1.63;;;10.60;71.40;;;;;;5034382;28;20025;-70
2023/11/01 01:17:13;;;;;;;5.18;0.70;;;10.60;71.10;;;;;;5035727;28;20544;-70
2023/11/01 01:19:38;;;;;;;5.00;1.13;;;10.70;71.30;;;;;;5035555;28;20048;-70
2023/11/01 01:22:04;;;;;;;7.00;1.00;;;10.60;71.00;;;;;;5035521;28;20021;-70
2023/11/01 01:24:29;;;;;;;5.40;0.90;;;10.60;71.00;;;;;;5035447;28;20497;-70
2023/11/01 01:26:55;;;;;;;4.70;1.05;;;10.70;70.80;;;;;;5035350;28;20021;-71
2023/11/01 01:29:21;;;;;;;4.40;0.95;;;10.70;70.50;;;;;;5034225;28;20557;-72
2023/11/01 01:31:46;;;;;;;4.10;0.60;;;10.80;69.90;;;;;;5035291;28;20051;-78
2023/11/01 01:34:12;;;;;;;6.05;1.30;;;10.80;70.10;;;;;;5035309;28;20031;-73
2023/11/01 01:36:37;;;;;;;5.57;0.90;;;10.70;70.90;;;;;;5035331;28;20026;-71
2023/11/01 01:39:03;;;;;;;7.07;0.73;;;10.70;70.70;;;;;;5035299;28;20104;-79
2023/11/01 01:41:28;;;;;;;4.70;0.75;;;10.70;70.50;;;;;;5035165;28;20026;-76
2023/11/01 01:43:54;;;;;;;10.23;3.65;;;10.70;70.90;;;;;;5033791;28;20021;-70
2023/11/01 01:46:22;;;;;;;7.35;1.50;;;10.70;70.80;;;;;;5035132;28;20044;-74
2023/11/01 01:48:48;;;;;;;7.75;0.80;;;10.70;70.10;;;;;;5035453;28;20030;-73
2023/11/01 01:51:14;;;;;;;4.78;0.93;;;10.60;70.40;;;;;;5034951;28;20045;-78
2023/11/01 01:53:44;;;;;;;4.68;0.88;;;10.60;69.60;;;;;;5035014;28;20071;-72
2023/11/01 01:56:12;;;;;;;3.63;0.90;;;10.70;69.50;;;;;;5034498;28;20417;-71
2023/11/01 01:58:40;;;;;;;3.78;0.80;;;10.60;69.50;;;;;;5034824;28;20109;-71
2023/11/01 02:01:05;;;;;;;4.25;0.88;;;10.70;69.30;;;;;;5034780;28;20029;-70
2023/11/01 02:03:31;;;;;;;4.15;0.60;;;10.60;69.30;;;;;;5034803;28;20032;-71
2023/11/01 02:05:57;;;;;;;3.47;0.82;;;10.60;69.20;;;;;;5034768;28;20022;-71
2023/11/01 02:08:25;;;;;;;3.90;0.73;;;10.60;68.60;;;;;;5034867;28;20120;-76
2023/11/01 02:10:51;;;;;;;6.93;0.88;;;10.60;68.90;;;;;;5034595;28;20537;-78
2023/11/01 02:13:16;;;;;;;3.67;0.65;;;10.60;68.90;;;;;;5034771;28;20382;-79
2023/11/01 02:15:44;;;;;;;3.53;0.80;;;10.60;68.50;;;;;;5034646;28;20105;-78
2023/11/01 02:18:10;;;;;;;4.55;0.98;;;10.60;68.40;;;;;;5034636;28;20053;-75
2023/11/01 02:20:38;;;;;;;8.32;1.25;;;10.60;68.60;;;;;;5034505;28;20515;-77
2023/11/01 02:23:16;;;;;;;3.45;0.80;;;10.60;69.60;;;;;;5034542;28;20048;-79
2023/11/01 02:25:43;;;;;;;3.58;0.88;;;10.60;68.80;;;;;;5034430;28;20064;-76
2023/11/01 02:28:10;;;;;;;7.47;0.98;;;10.60;68.60;;;;;;5034426;28;20029;-77
2023/11/01 02:30:36;;;;;;;6.13;0.90;;;10.60;68.40;;;;;;5034121;28;20037;-71
2023/11/01 02:33:01;;;;;;;7.50;0.85;;;10.70;68.60;;;;;;5034238;28;20105;-70
2023/11/01 02:35:27;;;;;;;3.58;0.98;;;10.70;68.60;;;;;;5034233;28;20128;-71
2023/11/01 02:37:53;;;;;;;3.92;0.90;;;10.70;68.50;;;;;;5034218;28;20442;-71
2023/11/01 02:40:18;;;;;;;3.55;1.20;;;10.70;68.50;;;;;;5034149;28;20079;-71
2023/11/01 02:42:47;;;;;;;4.82;0.63;;;10.70;68.70;;;;;;5033973;28;20033;-71
2023/11/01 02:45:13;;;;;;;2.83;0.50;;;10.70;68.60;;;;;;5034107;28;20022;-71
2023/11/01 02:47:39;;;;;;;4.18;0.73;;;10.70;68.60;;;;;;5034286;28;20075;-79
2023/11/01 02:50:07;;;;;;;3.67;0.90;;;10.70;68.60;;;;;;5038477;28;20022;-73
2023/11/01 02:52:33;;;;;;;4.43;0.80;;;10.60;69.70;;;;;;5035723;28;20038;-79
2023/11/01 02:55:01;;;;;;;3.65;0.77;;;10.60;68.90;;;;;;5034734;28;20025;-79
2023/11/01 02:57:27;;;;;;;4.95;0.60;;;10.60;69.30;;;;;;5034335;28;20104;-78
2023/11/01 02:59:52;;;;;;;3.97;0.90;;;10.60;69.70;;;;;;5033903;28;20493;-72
2023/11/01 03:02:18;;;;;;;3.92;0.65;;;10.50;69.90;;;;;;5033725;28;20482;-71
2023/11/01 03:04:43;;;;;;;5.00;0.80;;;10.50;70.10;;;;;;5033711;28;20540;-72
2023/11/01 03:07:09;;;;;;;1.65;0.77;;;10.40;70.30;;;;;;5032651;28;20025;-71
2023/11/01 03:09:34;;;;;;;5.45;1.15;;;10.40;70.50;;;;;;5033529;28;20030;-71
2023/11/01 03:12:00;;;;;;;2.30;0.80;;;10.30;70.70;;;;;;5033221;28;20163;-71
2023/11/01 03:14:25;;;;;;;3.60;0.85;;;10.30;70.80;;;;;;5032058;28;20665;-71
2023/11/01 03:16:51;;;;;;;5.15;0.60;;;10.30;71.10;;;;;;5033381;28;20472;-71
2023/11/01 03:19:16;;;;;;;3.45;0.68;;;10.30;71.20;;;;;;5033268;28;20021;-71
2023/11/01 03:21:42;;;;;;;4.68;0.60;;;10.30;71.40;;;;;;5033283;28;20402;-71
2023/11/01 03:24:08;;;;;;;2.50;0.95;;;10.30;71.60;;;;;;5033187;28;20040;-70
2023/11/01 03:26:34;;;;;;;3.28;1.08;;;10.20;71.70;;;;;;5031851;28;20022;-71
2023/11/01 03:29:00;;;;;;;4.60;1.05;;;10.20;72.00;;;;;;5033196;28;20367;-71
2023/11/01 03:31:25;;;;;;;6.03;1.75;;;10.20;72.10;;;;;;5031505;28;20040;-70
2023/11/01 03:33:51;;;;;;;5.10;1.80;;;10.10;72.30;;;;;;5033141;28;20029;-70
2023/11/01 03:36:17;;;;;;;5.97;2.33;;;10.10;72.60;;;;;;5033121;28;20025;-71
2023/11/01 03:38:43;;;;;;;5.13;1.88;;;10.10;72.80;;;;;;5033079;28;20032;-71
2023/11/01 03:41:09;;;;;;;4.55;1.27;;;10.00;72.90;;;;;;5033040;28;20208;-70
2023/11/01 03:43:35;;;;;;;6.57;1.40;;;10.00;73.00;;;;;;5032862;28;20113;-71
2023/11/01 03:46:02;;;;;;;5.07;1.48;;;10.00;73.10;;;;;;5031805;28;20026;-70
2023/11/01 03:48:28;;;;;;;5.75;1.70;;;10.00;73.40;;;;;;5031688;28;20022;-71
2023/11/01 03:50:53;;;;;;;3.17;1.08;;;9.90;73.80;;;;;;5032826;28;20034;-71
2023/11/01 03:53:19;;;;;;;3.45;1.00;;;9.90;74.10;;;;;;5033013;28;20148;-70
2023/11/01 03:55:44;;;;;;;4.32;0.90;;;9.80;74.30;;;;;;5032920;28;20026;-71
2023/11/01 03:58:10;;;;;;;4.28;1.00;;;9.70;74.60;;;;;;5032700;28;20037;-70
2023/11/01 04:00:35;;;;;;;3.38;0.60;;;9.60;74.90;;;;;;5032842;28;20034;-71
2023/11/01 04:03:01;;;;;;;5.75;0.80;;;9.60;75.20;;;;;;5032862;28;20026;-71
2023/11/01 04:05:26;;;;;;;5.53;1.00;;;9.50;75.50;;;;;;5032896;28;20378;-71
2023/11/01 04:07:52;;;;;;;3.78;0.82;;;9.40;75.80;;;;;;5032768;28;20032;-71
2023/11/01 04:10:19;;;;;;;5.00;1.20;;;9.40;76.40;;;;;;5031334;28;20025;-71
2023/11/01 04:12:45;;;;;;;4.03;0.88;;;9.30;76.80;;;;;;5032791;28;20477;-71
2023/11/01 04:15:11;;;;;;;7.32;0.95;;;9.20;77.00;;;;;;5032736;28;20037;-71
2023/11/01 04:17:37;;;;;;;3.03;1.10;;;9.20;77.20;;;;;;5032680;28;20481;-71
2023/11/01 04:20:05;;;;;;;2.42;0.60;;;9.20;77.30;;;;;;5035410;28;20389;-71
2023/11/01 04:22:31;;;;;;;4.60;0.98;;;9.10;77.60;;;;;;5036615;28;20021;-71
2023/11/01 04:24:56;;;;;;;4.68;0.90;;;9.10;77.70;;;;;;5036622;28;20105;-71
2023/11/01 04:27:22;;;;;;;2.95;0.65;;;9.10;77.50;;;;;;5036605;28;20030;-71
2023/11/01 04:29:54;;;;;;;3.65;0.75;;;9.10;77.50;;;;;;5036526;28;20025;-71
2023/11/01 04:32:22;;;;;;;3.67;0.68;;;9.20;77.50;;;;;;5036660;28;20112;-71
2023/11/01 04:34:51;;;;;;;7.60;1.20;;;9.20;77.50;;;;;;5036469;28;20029;-70
2023/11/01 04:37:16;;;;;;;3.25;0.80;;;9.20;77.40;;;;;;5036431;28;20063;-71
2023/11/01 04:39:46;;;;;;;5.97;1.05;;;9.20;77.30;;;;;;5036368;28;20018;-69
2023/11/01 04:42:18;;;;;;;7.18;0.93;;;9.10;77.30;;;;;;5036332;28;20084;-70
2023/11/01 04:44:45;;;;;;;3.28;0.80;;;9.20;77.40;;;;;;5036253;28;20558;-70
2023/11/01 04:47:11;;;;;;;6.93;0.90;;;9.20;77.10;;;;;;5036271;28;20036;-70
2023/11/01 04:49:37;;;;;;;4.38;0.88;;;9.20;77.00;;;;;;5036086;28;20056;-70
2023/11/01 04:52:06;;;;;;;10.93;1.40;;;9.20;77.10;;;;;;5036133;28;20088;-70
2023/11/01 04:54:36;;;;;;;5.43;0.85;;;9.20;76.80;;;;;;5035999;28;20056;-69
2023/11/01 04:57:02;;;;;;;4.22;0.93;;;9.20;77.00;;;;;;5036022;28;20516;-70
2023/11/01 04:59:31;;;;;;;4.65;1.00;;;9.10;77.20;;;;;;5035970;28;20077;-69
2023/11/01 05:01:58;;;;;;;7.32;1.15;;;9.20;77.20;;;;;;5035847;28;20096;-69
2023/11/01 05:04:24;;;;;;;3.65;0.90;;;9.10;77.10;;;;;;5035815;28;20032;-69
2023/11/01 05:06:50;;;;;;;4.88;0.93;;;9.10;77.10;;;;;;5035821;28;20021;-69
2023/11/01 05:09:16;;;;;;;5.75;0.85;;;9.10;77.30;;;;;;5035759;28;20462;-70
2023/11/01 05:11:43;;;;;;;6.80;0.57;;;9.00;77.40;;;;;;5034109;28;20418;-70
2023/11/01 05:14:08;;;;;;;4.90;0.90;;;9.10;77.40;;;;;;5035738;28;20021;-72
2023/11/01 05:16:34;;;;;;;2.35;0.85;;;9.10;77.50;;;;;;5035649;28;20029;-70
2023/11/01 05:19:00;;;;;;;5.78;0.80;;;9.10;77.40;;;;;;5035559;28;20022;-70
2023/11/01 05:21:25;;;;;;;3.15;0.63;;;9.10;77.60;;;;;;5035586;28;20382;-70
2023/11/01 05:23:51;;;;;;;3.45;0.80;;;9.00;77.60;;;;;;5035556;28;20030;-71
2023/11/01 05:26:17;;;;;;;3.83;0.82;;;9.00;77.60;;;;;;5035204;28;20478;-71
2023/11/01 05:28:43;;;;;;;4.57;0.90;;;8.90;77.80;;;;;;5034050;28;20382;-72
2023/11/01 05:31:09;;;;;;;4.55;0.70;;;8.80;77.90;;;;;;5034173;28;20037;-71
2023/11/01 05:33:35;;;;;;;3.72;0.85;;;8.80;78.10;;;;;;5035374;28;20373;-70
2023/11/01 05:36:06;;;;;;;7.20;1.20;;;8.70;78.50;;;;;;5035338;28;20109;-71
2023/11/01 05:38:32;;;;;;;4.28;0.68;;;8.60;78.60;;;;;;5035350;28;20025;-70
2023/11/01 05:40:58;;;;;;;2.22;1.10;;;8.60;78.90;;;;;;5035248;28;20021;-71
2023/11/01 05:43:24;;;;;;;3.92;1.45;;;8.70;78.60;;;;;;5033679;28;20032;-71
2023/11/01 05:45:49;;;;;;;4.80;1.10;;;8.70;78.30;;;;;;5033818;28;20021;-70
2023/11/01 05:48:15;;;;;;;4.13;0.80;;;8.80;77.80;;;;;;5071348;28;20082;-70
2023/11/01 05:50:43;;;;;;;2.42;0.90;;;8.80;77.30;;;;;;5074896;28;20032;-69
2023/11/01 05:53:10;;;;;;;2.42;0.60;;;8.90;77.30;;;;;;5074935;28;20385;-69
2023/11/01 05:55:37;;;;;;;4.28;0.65;;;8.90;77.00;;;;;;5062339;28;20017;-70
2023/11/01 05:58:05;;;;;;;2.40;0.50;;;9.00;76.80;;;;;;5053592;28;20028;-70
2023/11/01 06:00:31;;;;;;;4.45;0.80;;;9.00;76.50;;;;;;5054614;28;20092;-69
2023/11/01 06:02:56;;;;;;;5.55;1.05;;;9.00;76.30;;;;;;5053382;28;20102;-70
2023/11/01 06:05:22;;;;;;;3.60;1.20;;;9.00;76.20;;;;;;5053372;28;20013;-70
2023/11/01 06:07:48;;;;;;;3.63;1.30;;;9.00;76.10;;;;;;5054460;28;20025;-70
2023/11/01 06:10:14;;;;;;;3.25;1.38;;;9.00;76.20;;;;;;5054408;28;20090;-70
2023/11/01 06:12:39;;;;;;;3.72;1.10;;;9.00;76.00;;;;;;5058022;28;20037;-70
2023/11/01 06:15:05;;;;;;;3.75;1.25;;;9.00;76.00;;;;;;5074732;28;20024;-70
2023/11/01 06:17:31;;;;;;;3.55;1.48;;;9.00;76.20;;;;;;5074516;28;20035;-71
2023/11/01 06:19:56;;;;;;;3.42;1.00;;;9.00;76.10;;;;;;5073454;28;20603;-69
2023/11/01 06:22:22;;;;;;;2.80;0.95;;;9.00;76.00;;;;;;5074382;28;20420;-69
2023/11/01 06:24:48;;;;;;;3.33;1.23;;;9.10;75.80;;;;;;5074321;28;20067;-69
2023/11/01 06:27:13;;;;;;;2.70;1.20;;;9.10;75.50;;;;;;5074420;28;20116;-70
2023/11/01 06:29:42;;;;;;;3.85;1.52;;;9.10;75.10;;;;;;5074312;28;20472;-70
2023/11/01 06:32:08;;;;;;;3.08;1.17;;;9.10;75.10;;;;;;5074151;28;20397;-69
2023/11/01 06:34:34;;;;;;;4.32;1.67;;;9.10;74.80;;;;;;5074125;28;20052;-70
2023/11/01 06:36:59;;;;;;;3.25;0.88;;;9.10;74.80;;;;;;5074138;28;20055;-70
2023/11/01 06:39:25;;;;;;;5.55;1.00;;;9.20;74.90;;;;;;5074028;28;20081;-70
2023/11/01 06:41:50;;;;;;;2.08;0.55;;;9.20;74.80;;;;;;5073700;28;20024;-72
2023/11/01 06:44:16;;;;;;;1.33;0.50;;;9.30;74.80;;;;;;5073803;28;20138;-70
2023/11/01 06:46:41;;;;;;;1.98;0.60;;;9.30;74.60;;;;;;5073814;28;20032;-70
2023/11/01 06:49:07;;;;;;;3.08;0.80;;;9.40;74.30;;;;;;5073733;28;20429;-71
2023/11/01 06:51:32;;;;;;;2.05;0.52;;;9.40;74.10;;;;;;5073644;28;20493;-75
2023/11/01 06:53:58;;;;;;;4.20;0.80;;;9.50;73.90;;;;;;5072202;28;20485;-71
2023/11/01 06:56:24;;;;;;;3.03;0.75;;;9.60;73.40;;;;;;5073647;28;20566;-71
2023/11/01 06:58:49;;;;;;;2.90;0.88;;;9.70;73.00;;;;;;5073576;28;20020;-72
2023/11/01 07:01:15;;;;;;;4.65;0.90;;;9.70;72.50;;;;;;5072180;28;20211;-72
2023/11/01 07:03:40;;;;;;;1.60;0.70;;;9.80;71.80;;;;;;5072316;28;20028;-75
2023/11/01 07:06:07;;;;;;;2.67;0.52;;;9.90;71.70;;;;;;5074125;28;20499;-70
2023/11/01 07:08:33;;;;;;;0.52;0.50;;;10.00;71.60;;;;;;5078990;28;20052;-71
2023/11/01 07:10:59;;;;;;;1.63;0.60;;;10.00;70.90;;;;;;5073202;28;20087;-72
2023/11/01 07:13:25;;;;;;;2.33;0.60;;;10.10;70.60;;;;;;5072085;28;20040;-70
2023/11/01 07:15:50;;;;;;;2.50;0.75;;;10.20;69.00;;;;;;5073275;28;20032;-70
2023/11/01 07:18:16;;;;;;;4.88;0.82;;;10.30;68.40;;;;;;5072081;28;20024;-70
2023/11/01 07:20:41;;;;;;;1.90;0.70;;;10.50;68.30;;;;;;5073268;28;20465;-70
2023/11/01 07:23:07;;;;;;;3.70;0.90;;;10.60;68.10;;;;;;5073278;28;20024;-71
2023/11/01 07:25:33;;;;;;;1.38;0.45;;;10.70;67.10;;;;;;5072005;28;20020;-74
2023/11/01 07:27:58;;;;;;;1.83;0.50;;;10.80;66.90;;;;;;5073104;28;20418;-70
2023/11/01 07:30:24;;;;;;;3.45;1.10;;;10.90;66.70;;;;;;5073116;28;20035;-74
2023/11/01 07:32:52;;;;;;;1.33;0.68;;;11.00;66.50;;;;;;5073161;28;20028;-70
2023/11/01 07:35:17;;;;;;;1.13;0.52;;;11.20;65.90;;;;;;5073226;28;20066;-75
2023/11/01 07:37:43;;;;;;;6.13;1.02;;;11.30;65.40;;;;;;5072958;28;20025;-71
2023/11/01 07:40:09;;;;;;;3.80;0.90;;;11.40;64.90;;;;;;5072850;28;20021;-70
2023/11/01 07:42:38;;;;;;;5.38;1.65;;;11.50;64.40;;;;;;5072880;28;20103;-71
2023/11/01 07:45:04;;;;;;;1.75;1.20;;;11.60;69.70;;;;;;5073013;28;20043;-71
2023/11/01 07:47:30;;;;;;;2.30;0.70;;;11.90;75.80;;;;;;5072827;28;20021;-71
2023/11/01 07:49:55;;;;;;;3.63;0.73;;;12.20;70.00;;;;;;5072801;28;20040;-71
2023/11/01 07:52:21;;;;;;;3.78;0.98;;;12.40;65.50;;;;;;5072971;28;20040;-71
2023/11/01 07:54:47;;;;;;;3.35;0.75;;;12.80;64.80;;;;;;5072733;28;20048;-71
2023/11/01 07:57:12;;;;;;;2.47;0.70;;;13.10;61.40;;;;;;5072784;28;20035;-73
2023/11/01 07:59:39;;;;;;;3.17;0.60;;;13.30;60.10;;;;;;5072796;28;20028;-72
2023/11/01 08:02:06;;;;;;;2.75;0.85;;;13.60;59.50;;;;;;5072730;28;20029;-71
2023/11/01 08:04:31;;;;;;;2.35;0.55;;;13.80;58.20;;;;;;5072817;28;20016;-69
2023/11/01 08:06:57;;;;;;;0.88;0.50;;;14.10;56.50;;;;;;5073020;28;20097;-69
2023/11/01 08:09:22;;;;;;;1.58;0.68;;;14.30;55.60;;;;;;5072790;28;20100;-69
2023/11/01 08:11:49;;;;;;;0.90;0.50;;;14.60;53.90;;;;;;5072451;28;20057;-69
2023/11/01 08:14:14;;;;;;;0.77;0.40;;;14.80;53.10;;;;;;5072664;28;20386;-70
2023/11/01 08:16:40;;;;;;;2.97;0.70;;;15.00;52.00;;;;;;5072560;28;20028;-70
2023/11/01 08:19:06;;;;;;;2.22;0.70;;;15.20;51.50;;;;;;5072590;28;20031;-70
2023/11/01 08:21:32;;;;;;;4.22;0.60;;;15.40;50.40;;;;;;5072620;28;20028;-70
2023/11/01 08:23:57;;;;;;;3.15;0.68;;;15.50;49.80;;;;;;5072557;28;20024;-69
2023/11/01 08:26:23;;;;;;;1.48;0.55;;;15.70;49.90;;;;;;5071151;28;20404;-70
2023/11/01 08:28:49;;;;;;;0.73;0.40;;;15.80;50.00;;;;;;5072650;28;20034;-70
2023/11/01 08:31:15;;;;;;;1.38;0.50;;;15.90;49.40;;;;;;5072507;28;20056;-68
2023/11/01 08:33:40;;;;;;;10.93;1.45;;;16.00;49.60;;;;;;5071133;28;20393;-71
2023/11/01 08:36:06;;;;;;;1.70;0.50;;;16.20;48.70;;;;;;5070766;28;20029;-73
2023/11/01 08:38:32;;;;;;;2.95;0.73;;;16.30;47.90;;;;;;5071073;28;20033;-73
2023/11/01 08:40:57;;;;;;;3.05;0.50;;;16.40;47.80;;;;;;5070990;28;20028;-70
2023/11/01 08:43:23;;;;;;;0.75;0.50;;;16.50;47.40;;;;;;5072303;28;20024;-73
2023/11/01 08:45:48;;;;;;;7.20;0.70;;;16.70;47.20;;;;;;5070973;28;20070;-72
2023/11/01 08:48:16;;;;;;;1.77;0.60;;;16.80;46.70;;;;;;5070673;28;20060;-70
2023/11/01 08:50:41;;;;;;;0.30;0.30;;;16.80;46.60;;;;;;5072220;28;20063;-70
2023/11/01 08:53:07;;;;;;;1.20;0.50;;;16.90;46.60;;;;;;5072107;28;20542;-76
2023/11/01 08:55:33;;;;;;;1.45;0.52;;;17.00;45.90;;;;;;5072202;28;20373;-71
2023/11/01 08:57:58;;;;;;;2.10;0.30;;;17.20;46.10;;;;;;5072100;28;20037;-74
2023/11/01 09:00:24;;;;;;;2.05;0.57;;;17.30;46.00;;;;;;5072143;28;20071;-75
2023/11/01 09:02:50;;;;;;;1.65;0.52;;;17.40;45.60;;;;;;5070819;28;20052;-73
2023/11/01 09:05:15;;;;;;;0.75;0.30;;;17.50;45.30;;;;;;5074696;28;20025;-75
2023/11/01 09:07:41;;;;;;;1.23;0.43;;;17.60;44.60;;;;;;5074466;28;20431;-76
2023/11/01 09:10:10;;;;;;;1.50;0.43;;;17.70;44.40;;;;;;5075629;28;20024;-73
2023/11/01 09:12:36;;;;;;;10.77;9.68;;;17.80;44.20;;;;;;5075664;28;20107;-77
2023/11/01 09:15:03;;;;;;;10.45;8.38;;;17.80;43.80;;;;;;5075759;28;20016;-75
2023/11/01 09:17:29;;;;;;;5.15;4.18;;;17.90;43.70;;;;;;5074444;28;20029;-73
2023/11/01 09:19:55;;;;;;;1.52;0.88;;;17.90;43.50;;;;;;5074342;28;20366;-71
2023/11/01 09:22:20;;;;;;;1.73;0.90;;;17.80;42.90;;;;;;5075259;28;20025;-73
2023/11/01 09:24:46;;;;;;;2.05;0.68;;;17.70;44.10;;;;;;5075664;28;20025;-72
2023/11/01 09:27:11;;;;;;;0.77;0.35;;;17.70;44.50;;;;;;5073989;28;20508;-74
2023/11/01 09:29:37;;;;;;;0.90;0.45;;;17.70;45.20;;;;;;5074155;28;20048;-79
2023/11/01 09:32:03;;;;;;;0.80;0.50;;;17.80;45.20;;;;;;5075327;28;20481;-72
2023/11/01 09:34:28;;;;;;;2.03;0.50;;;17.90;44.90;;;;;;5075552;28;20469;-80
2023/11/01 09:36:54;;;;;;;1.10;0.50;;;18.10;43.70;;;;;;5074198;28;20063;-79
2023/11/01 09:39:20;;;;;;;1.45;0.40;;;18.10;43.20;;;;;;5075272;28;20028;-78
2023/11/01 09:41:50;;;;;;;2.70;0.45;;;18.00;43.80;;;;;;5074131;28;20021;-79
2023/11/01 09:44:18;;;;;;;1.30;0.40;;;18.10;43.70;;;;;;5074080;28;20028;-78
2023/11/01 09:46:47;;;;;;;2.58;0.50;;;18.20;43.70;;;;;;5075359;28;20021;-74
2023/11/01 09:49:15;;;;;;;0.70;0.50;;;18.30;43.00;;;;;;5075322;28;20024;-72
2023/11/01 09:51:42;;;;;;;1.52;0.60;;;18.30;42.80;;;;;;5075098;28;20036;-72
2023/11/01 09:54:11;;;;;;;2.00;0.40;;;18.20;43.80;;;;;;5075156;28;20016;-72
2023/11/01 09:56:41;;;;;;;3.30;0.43;;;18.30;43.80;;;;;;5074903;28;20024;-71
2023/11/01 09:59:11;;;;;;;1.80;0.70;;;18.30;43.50;;;;;;5074969;28;20120;-71
2023/11/01 10:01:40;;;;;;;1.48;0.60;;;18.20;43.80;;;;;;5073967;28;20111;-72
2023/11/01 10:04:07;;;;;;;0.80;0.80;;;18.20;43.70;;;;;;5074814;28;20496;-76
2023/11/01 10:06:35;;;;;;;2.40;0.65;;;18.20;44.70;;;;;;5073234;28;20057;-73
2023/11/01 10:09:02;;;;;;;1.00;0.47;;;18.10;43.70;;;;;;5074789;28;20017;-73
2023/11/01 10:11:28;;;;;;;1.25;0.60;;;18.00;44.40;;;;;;5073106;28;20044;-71
2023/11/01 10:13:54;;;;;;;2.95;0.60;;;18.10;44.50;;;;;;5073412;28;20031;-73
2023/11/01 10:16:20;;;;;;;1.45;0.65;;;18.10;44.00;;;;;;5074053;28;20037;-72
2023/11/01 10:18:47;;;;;;;2.15;0.55;;;18.20;45.10;;;;;;5065007;28;20022;-72
2023/11/01 10:21:13;;;;;;;2.40;0.80;;;18.20;43.70;;;;;;5041521;28;20059;-74
2023/11/01 10:23:38;;;;;;;1.92;0.55;;;18.10;44.00;;;;;;5044705;28;20052;-72
2023/11/01 10:26:04;;;;;;;0.75;0.40;;;17.90;42.20;;;;;;5043837;28;20045;-72
2023/11/01 10:28:39;;;;;;;1.73;0.70;;;17.30;42.80;;;;;;5043047;28;20028;-75
2023/11/01 10:31:04;;;;;;;1.92;0.60;;;17.10;43.40;;;;;;5067155;28;20084;-75
2023/11/01 10:33:33;;;;;;;2.15;0.70;;;16.90;43.60;;;;;;5042936;28;20382;-72
2023/11/01 10:36:00;;;;;;;2.30;0.60;;;16.70;44.00;;;;;;5043192;28;20155;-73
2023/11/01 10:38:28;;;;;;;2.88;1.00;;;16.60;45.30;;;;;;5043252;28;20029;-72
2023/11/01 10:40:58;;;;;;;2.20;1.13;;;16.40;45.70;;;;;;5043498;28;20029;-71
2023/11/01 10:43:27;;;;;;;1.73;1.05;;;16.10;46.20;;;;;;5043623;28;20025;-72
2023/11/01 10:45:58;;;;;;;1.23;0.73;;;16.10;45.90;;;;;;5039800;28;20100;-71
2023/11/01 10:48:25;;;;;;;2.03;0.73;;;16.10;46.20;;;;;;5044258;28;20022;-73
2023/11/01 10:50:52;;;;;;;0.90;0.40;;;15.80;46.30;;;;;;5042348;28;20048;-72
2023/11/01 10:53:24;;;;;;;1.63;0.77;;;15.70;47.10;;;;;;5042413;28;20107;-72
2023/11/01 10:55:51;;;;;;;1.40;0.70;;;15.50;48.50;;;;;;5044384;28;20078;-76
2023/11/01 10:58:27;;;;;;;2.83;1.13;;;15.30;49.10;;;;;;5043038;28;20021;-74
2023/11/01 11:01:09;;;;;;;2.13;0.60;;;15.30;49.20;;;;;;5041131;28;20049;-76
2023/11/01 11:03:49;;;;;;;1.13;0.77;;;15.20;49.10;;;;;;5041492;28;20175;-76
2023/11/01 11:06:20;;;;;;;2.22;0.50;;;15.10;50.30;;;;;;5042685;28;20056;-73
2023/11/01 11:09:27;;;;;;;0.90;0.40;;;15.10;49.80;;;;;;5040902;28;20033;-75
2023/11/01 11:12:16;;;;;;;6.10;5.22;;;15.20;51.10;;;;;;5040147;28;20044;-72
2023/11/01 11:14:43;;;;;;;1.83;0.80;;;15.30;50.10;;;;;;5043685;28;20030;-73
2023/11/01 11:17:12;;;;;;;1.17;0.82;;;15.40;49.90;;;;;;5042040;28;20470;-72
2023/11/01 11:20:13;;;;;;;1.08;0.60;;;15.70;49.10;;;;;;5043486;28;20025;-73
2023/11/01 11:23:14;;;;;;;2.10;0.50;;;15.70;48.70;;;;;;5042987;28;20064;-72
2023/11/01 11:25:48;;;;;;;0.93;0.45;;;15.50;47.50;;;;;;5042862;28;20576;-72
2023/11/01 11:28:26;;;;;;;0.93;0.50;;;15.40;48.10;;;;;;5040456;28;20028;-72
2023/11/01 11:31:23;;;;;;;1.17;0.70;;;15.30;48.40;;;;;;5042818;28;20017;-72
2023/11/01 11:33:49;;;;;;;0.77;0.50;;;15.20;47.70;;;;;;5044784;28;20060;-72
2023/11/01 11:36:21;;;;;;;0.90;0.52;;;14.90;48.50;;;;;;5043715;28;20056;-72
2023/11/01 11:39:01;;;;;;;1.90;0.68;;;14.80;48.40;;;;;;5042399;28;20033;-72
2023/11/01 11:41:42;;;;;;;0.88;0.40;;;14.60;49.70;;;;;;5042759;28;20018;-78
2023/11/01 11:44:14;;;;;;;1.50;0.50;;;14.40;50.80;;;;;;5041491;28;20363;-72
2023/11/01 11:46:41;;;;;;;1.98;0.40;;;14.30;51.30;;;;;;5042646;28;20453;-75
2023/11/01 11:49:22;;;;;;;2.83;0.50;;;14.20;51.60;;;;;;5041320;28;20117;-74
2023/11/01 11:51:52;;;;;;;2.38;0.63;;;14.10;51.10;;;;;;5042883;28;20018;-74
2023/11/01 11:54:18;;;;;;;0.93;0.40;;;14.10;51.60;;;;;;5042126;28;20075;-74
2023/11/01 11:56:44;;;;;;;1.58;0.50;;;14.00;51.80;;;;;;5044787;28;20021;-77
2023/11/01 11:59:16;;;;;;;1.73;0.57;;;13.90;52.40;;;;;;5053632;28;20415;-77
2023/11/01 12:01:42;;;;;;;2.75;0.90;;;13.90;51.30;;;;;;5053487;28;20469;-74
2023/11/01 12:04:08;;;;;;;1.58;0.80;;;13.90;52.10;;;;;;5051333;28;20040;-75
2023/11/01 12:06:42;;;;;;;1.98;0.60;;;13.90;52.40;;;;;;5051722;28;20017;-72
2023/11/01 12:09:20;;;;;;;3.88;0.90;;;14.00;52.10;;;;;;5052661;28;20033;-72
2023/11/01 12:11:54;;;;;;;3.13;0.93;;;14.00;51.50;;;;;;5051138;28;20132;-73
2023/11/01 12:14:21;;;;;;;1.65;0.60;;;14.10;52.80;;;;;;5052673;28;20021;-70
2023/11/01 12:16:48;;;;;;;1.00;0.77;;;14.10;53.20;;;;;;5051432;28;20079;-72
2023/11/01 12:19:18;;;;;;;3.05;0.88;;;14.10;53.20;;;;;;5052871;28;20104;-72
2023/11/01 12:21:48;;;;;;;1.02;0.50;;;14.20;53.70;;;;;;5046684;28;20037;-73
2023/11/01 12:24:14;;;;;;;2.15;0.90;;;14.20;53.20;;;;;;5041254;28;20028;-71
2023/11/01 12:27:01;;;;;;;2.05;0.82;;;14.30;53.20;;;;;;5041153;28;20028;-72
2023/11/01 12:29:46;;;;;;;2.00;0.60;;;14.40;53.10;;;;;;5042020;28;20501;-71
2023/11/01 12:32:16;;;;;;;2.67;0.75;;;14.60;53.10;;;;;;5043066;28;20032;-72
2023/11/01 12:34:47;;;;;;;1.42;0.70;;;14.70;52.50;;;;;;5039957;28;20049;-71
2023/11/01 12:37:24;;;;;;;1.52;0.80;;;14.80;52.10;;;;;;5041312;28;20025;-71
2023/11/01 12:40:12;;;;;;;1.92;0.70;;;15.00;51.60;;;;;;5043179;28;20021;-71
2023/11/01 12:42:46;;;;;;;3.78;0.70;;;15.10;50.70;;;;;;5045747;28;20036;-72
2023/11/01 12:45:12;;;;;;;2.67;0.80;;;15.40;49.80;;;;;;5044041;28;20024;-73
2023/11/01 12:47:46;;;;;;;1.80;0.80;;;15.60;48.80;;;;;;5042990;28;20025;-71
2023/11/01 12:50:16;;;;;;;3.70;0.98;;;16.00;47.10;;;;;;5047983;28;20021;-71
2023/11/01 12:52:42;;;;;;;0.82;0.70;;;16.70;45.40;;;;;;5053405;28;20142;-74